GEOFB HCMM-HKWJ
Flight info
| Callsign | GEOFB |
|---|---|
| Flight time | 0h 48m |
| Altitude | 40000 |
| Route | TULAP1 TULAP DCT APNEX APNEX1A |
| Aircraft | C750/M-SBDE3FGHRWXY/S |
Departure
| Time | 2026-04-26 16:34 |
|---|---|
| Airport | Aden Adde International Airport (HCMM) |
Arrival
| Time | 2026-04-26 17:22 |
|---|---|
| Airport | Wajir Airport (HKWJ) |
| Time | Latitude | Longitude | Altitude | Speed | Heading |
|---|---|---|---|---|---|
| 2026-04-26 16:32 | 2.01374 | 45.30379 | 19 ft | 0 kts | 50° |
| 2026-04-26 16:33 | 2.01465 | 45.30487 | 19 ft | 75 kts | 51° |
| 2026-04-26 16:33 | 2.02053 | 45.31193 | 88 ft | 165 kts | 50° |
| 2026-04-26 16:34 | 2.03187 | 45.31459 | 266 ft | 202 kts | 320° |
| 2026-04-26 16:34 | 2.03273 | 45.30155 | 922 ft | 210 kts | 248° |
| 2026-04-26 16:34 | 2.02814 | 45.28847 | 2240 ft | 193 kts | 254° |
| 2026-04-26 16:34 | 2.02286 | 45.27570 | 3167 ft | 209 kts | 245° |
| 2026-04-26 16:35 | 2.01611 | 45.26192 | 3877 ft | 234 kts | 246° |
| 2026-04-26 16:35 | 2.00939 | 45.24637 | 4548 ft | 259 kts | 248° |
| 2026-04-26 16:35 | 2.00231 | 45.22898 | 5262 ft | 278 kts | 249° |
| 2026-04-26 16:35 | 1.99484 | 45.21108 | 6389 ft | 280 kts | 248° |
| 2026-04-26 16:36 | 1.98717 | 45.19297 | 7412 ft | 286 kts | 248° |
| 2026-04-26 16:36 | 1.97938 | 45.17448 | 8533 ft | 292 kts | 248° |
| 2026-04-26 16:36 | 1.97146 | 45.15555 | 9624 ft | 299 kts | 248° |
| 2026-04-26 16:36 | 1.96326 | 45.13601 | 10424 ft | 313 kts | 248° |
| 2026-04-26 16:37 | 1.95447 | 45.11508 | 10775 ft | 340 kts | 248° |
| 2026-04-26 16:37 | 1.94510 | 45.09277 | 11005 ft | 367 kts | 248° |
| 2026-04-26 16:37 | 1.93495 | 45.06863 | 11771 ft | 372 kts | 248° |
| 2026-04-26 16:37 | 1.92830 | 45.05280 | 12371 ft | 374 kts | 248° |
| 2026-04-26 16:38 | 1.91487 | 45.02078 | 13439 ft | 381 kts | 248° |
| 2026-04-26 16:38 | 1.90454 | 44.99620 | 14189 ft | 385 kts | 247° |
| 2026-04-26 16:38 | 1.89411 | 44.97138 | 14889 ft | 390 kts | 247° |
| 2026-04-26 16:38 | 1.88357 | 44.94627 | 15585 ft | 394 kts | 247° |
| 2026-04-26 16:39 | 1.87289 | 44.92083 | 16292 ft | 399 kts | 247° |
| 2026-04-26 16:39 | 1.86206 | 44.89506 | 17013 ft | 404 kts | 247° |
| 2026-04-26 16:39 | 1.85110 | 44.86897 | 17756 ft | 410 kts | 247° |
| 2026-04-26 16:39 | 1.84015 | 44.84291 | 18460 ft | 415 kts | 247° |
| 2026-04-26 16:40 | 1.82893 | 44.81620 | 19137 ft | 420 kts | 247° |
| 2026-04-26 16:40 | 1.81756 | 44.78911 | 19829 ft | 425 kts | 247° |
| 2026-04-26 16:40 | 1.80605 | 44.76172 | 20524 ft | 430 kts | 248° |
| 2026-04-26 16:40 | 1.79439 | 44.73398 | 21227 ft | 435 kts | 248° |
| 2026-04-26 16:41 | 1.78264 | 44.70599 | 21924 ft | 441 kts | 248° |
| 2026-04-26 16:41 | 1.77065 | 44.67746 | 22624 ft | 446 kts | 248° |
| 2026-04-26 16:41 | 1.75857 | 44.64871 | 23311 ft | 452 kts | 248° |
| 2026-04-26 16:41 | 1.74647 | 44.61993 | 23915 ft | 457 kts | 248° |
| 2026-04-26 16:42 | 1.73411 | 44.59052 | 24481 ft | 462 kts | 248° |
| 2026-04-26 16:42 | 1.72159 | 44.56071 | 25090 ft | 466 kts | 248° |
| 2026-04-26 16:42 | 1.70899 | 44.53075 | 25704 ft | 470 kts | 248° |
| 2026-04-26 16:42 | 1.69626 | 44.50045 | 26324 ft | 474 kts | 248° |
| 2026-04-26 16:43 | 1.68347 | 44.47003 | 26926 ft | 478 kts | 248° |
| 2026-04-26 16:43 | 1.67057 | 44.43935 | 27532 ft | 482 kts | 247° |
| 2026-04-26 16:43 | 1.65751 | 44.40829 | 28131 ft | 487 kts | 248° |
| 2026-04-26 16:43 | 1.64432 | 44.37690 | 28705 ft | 491 kts | 248° |
| 2026-04-26 16:44 | 1.63103 | 44.34528 | 29321 ft | 494 kts | 248° |
| 2026-04-26 16:44 | 1.61784 | 44.31390 | 29897 ft | 498 kts | 248° |
| 2026-04-26 16:44 | 1.60441 | 44.28197 | 30357 ft | 502 kts | 248° |
| 2026-04-26 16:44 | 1.59080 | 44.24962 | 30826 ft | 505 kts | 248° |
| 2026-04-26 16:45 | 1.57721 | 44.21731 | 31455 ft | 504 kts | 248° |
| 2026-04-26 16:45 | 1.56365 | 44.18505 | 32065 ft | 503 kts | 248° |
| 2026-04-26 16:45 | 1.55009 | 44.15281 | 32674 ft | 503 kts | 248° |
| 2026-04-26 16:45 | 1.53656 | 44.12065 | 33295 ft | 502 kts | 248° |
| 2026-04-26 16:46 | 1.52304 | 44.08851 | 33915 ft | 501 kts | 248° |
| 2026-04-26 16:46 | 1.51411 | 44.06726 | 34284 ft | 500 kts | 248° |
| 2026-04-26 16:46 | 1.50066 | 44.03528 | 34876 ft | 499 kts | 248° |
| 2026-04-26 16:46 | 1.48722 | 44.00333 | 35452 ft | 498 kts | 248° |
| 2026-04-26 16:47 | 1.46951 | 43.96123 | 36253 ft | 495 kts | 248° |
| 2026-04-26 16:47 | 1.45620 | 43.92958 | 36901 ft | 493 kts | 248° |
| 2026-04-26 16:47 | 1.44294 | 43.89808 | 37559 ft | 491 kts | 248° |
| 2026-04-26 16:47 | 1.43417 | 43.87723 | 38000 ft | 490 kts | 248° |
| 2026-04-26 16:48 | 1.42099 | 43.84591 | 38663 ft | 488 kts | 248° |
| 2026-04-26 16:48 | 1.40790 | 43.81479 | 39227 ft | 486 kts | 248° |
| 2026-04-26 16:48 | 1.39481 | 43.78368 | 39771 ft | 485 kts | 248° |
| 2026-04-26 16:48 | 1.38166 | 43.75243 | 40021 ft | 492 kts | 248° |
| 2026-04-26 16:49 | 1.36380 | 43.70994 | 40022 ft | 509 kts | 248° |
| 2026-04-26 16:49 | 1.34993 | 43.67699 | 40029 ft | 520 kts | 248° |
| 2026-04-26 16:49 | 1.32479 | 43.60777 | 40030 ft | 539 kts | 258° |
| 2026-04-26 16:50 | 1.31784 | 43.54559 | 40031 ft | 544 kts | 272° |
| 2026-04-26 16:50 | 1.32892 | 43.47128 | 40029 ft | 541 kts | 288° |
| 2026-04-26 16:51 | 1.35448 | 43.40081 | 40040 ft | 537 kts | 293° |
| 2026-04-26 16:51 | 1.37831 | 43.33008 | 40027 ft | 539 kts | 286° |
| 2026-04-26 16:52 | 1.39184 | 43.26920 | 40023 ft | 541 kts | 284° |
| 2026-04-26 16:52 | 1.41480 | 43.18466 | 40022 ft | 543 kts | 289° |
| 2026-04-26 16:53 | 1.43373 | 43.11150 | 39927 ft | 544 kts | 285° |
| 2026-04-26 16:53 | 1.45312 | 43.03852 | 39929 ft | 543 kts | 288° |
| 2026-04-26 16:54 | 1.47266 | 42.96530 | 39933 ft | 547 kts | 285° |
| 2026-04-26 16:54 | 1.49187 | 42.89185 | 39933 ft | 546 kts | 287° |
| 2026-04-26 16:55 | 1.51137 | 42.81908 | 39929 ft | 546 kts | 286° |
| 2026-04-26 16:55 | 1.53058 | 42.74570 | 39924 ft | 546 kts | 287° |
| 2026-04-26 16:56 | 1.55976 | 42.63569 | 39928 ft | 546 kts | 286° |
| 2026-04-26 16:57 | 1.57907 | 42.56291 | 39931 ft | 544 kts | 287° |
| 2026-04-26 16:57 | 1.60803 | 42.45328 | 39931 ft | 544 kts | 287° |
| 2026-04-26 16:58 | 1.62415 | 42.39250 | 39931 ft | 544 kts | 287° |
| 2026-04-26 16:59 | 1.65643 | 42.27034 | 39933 ft | 544 kts | 287° |
| 2026-04-26 17:00 | 1.69496 | 42.12462 | 39931 ft | 544 kts | 287° |
| 2026-04-26 17:00 | 1.72393 | 42.01502 | 39928 ft | 544 kts | 287° |
| 2026-04-26 17:01 | 1.73348 | 41.97882 | 39580 ft | 530 kts | 287° |
| 2026-04-26 17:01 | 1.74272 | 41.94380 | 38893 ft | 511 kts | 287° |
| 2026-04-26 17:01 | 1.75166 | 41.90997 | 38196 ft | 494 kts | 287° |
| 2026-04-26 17:01 | 1.76018 | 41.87779 | 37579 ft | 479 kts | 287° |
| 2026-04-26 17:02 | 1.76864 | 41.84581 | 36965 ft | 474 kts | 287° |
| 2026-04-26 17:02 | 1.77708 | 41.81390 | 36347 ft | 479 kts | 287° |
| 2026-04-26 17:02 | 1.78565 | 41.78149 | 35715 ft | 485 kts | 287° |
| 2026-04-26 17:02 | 1.79428 | 41.74875 | 35072 ft | 488 kts | 286° |
| 2026-04-26 17:03 | 1.80296 | 41.71583 | 34419 ft | 491 kts | 286° |
| 2026-04-26 17:03 | 1.81170 | 41.68278 | 33792 ft | 492 kts | 286° |
| 2026-04-26 17:03 | 1.82046 | 41.64962 | 33130 ft | 493 kts | 286° |
| 2026-04-26 17:03 | 1.82906 | 41.61702 | 32489 ft | 494 kts | 286° |
| 2026-04-26 17:04 | 1.83783 | 41.58378 | 31838 ft | 495 kts | 286° |
| 2026-04-26 17:04 | 1.84662 | 41.55050 | 31185 ft | 495 kts | 286° |
| 2026-04-26 17:04 | 1.85539 | 41.51729 | 30534 ft | 495 kts | 286° |
| 2026-04-26 17:04 | 1.86418 | 41.48400 | 29858 ft | 493 kts | 287° |
| 2026-04-26 17:05 | 1.87284 | 41.45115 | 29191 ft | 486 kts | 287° |
| 2026-04-26 17:05 | 1.88144 | 41.41853 | 28550 ft | 482 kts | 287° |
| 2026-04-26 17:05 | 1.88996 | 41.38630 | 27920 ft | 479 kts | 287° |
| 2026-04-26 17:05 | 1.89842 | 41.35422 | 27292 ft | 475 kts | 287° |
| 2026-04-26 17:06 | 1.90669 | 41.32285 | 26684 ft | 471 kts | 287° |
| 2026-04-26 17:06 | 1.91510 | 41.29099 | 26057 ft | 467 kts | 287° |
| 2026-04-26 17:06 | 1.92326 | 41.26008 | 25459 ft | 464 kts | 287° |
| 2026-04-26 17:06 | 1.93145 | 41.22904 | 24852 ft | 460 kts | 287° |
| 2026-04-26 17:07 | 1.93957 | 41.19822 | 24245 ft | 457 kts | 287° |
| 2026-04-26 17:07 | 1.94763 | 41.16765 | 23656 ft | 453 kts | 287° |
| 2026-04-26 17:07 | 1.95563 | 41.13732 | 23014 ft | 449 kts | 287° |
| 2026-04-26 17:07 | 1.96355 | 41.10730 | 22425 ft | 444 kts | 287° |
| 2026-04-26 17:08 | 1.97138 | 41.07761 | 21844 ft | 440 kts | 287° |
| 2026-04-26 17:08 | 1.97914 | 41.04820 | 21268 ft | 436 kts | 287° |
| 2026-04-26 17:08 | 1.98663 | 41.01898 | 20693 ft | 431 kts | 284° |
| 2026-04-26 17:08 | 1.98864 | 40.98966 | 20104 ft | 430 kts | 266° |
| 2026-04-26 17:09 | 1.98184 | 40.96081 | 19545 ft | 427 kts | 249° |
| 2026-04-26 17:09 | 1.97341 | 40.94318 | 19211 ft | 423 kts | 243° |
| 2026-04-26 17:09 | 1.95500 | 40.90859 | 18482 ft | 418 kts | 241° |
| 2026-04-26 17:09 | 1.94146 | 40.88311 | 17887 ft | 414 kts | 242° |
| 2026-04-26 17:10 | 1.92832 | 40.85776 | 17339 ft | 409 kts | 243° |
| 2026-04-26 17:10 | 1.91525 | 40.83264 | 16800 ft | 405 kts | 242° |
| 2026-04-26 17:10 | 1.90213 | 40.80783 | 16259 ft | 401 kts | 242° |
| 2026-04-26 17:10 | 1.88921 | 40.78332 | 15739 ft | 397 kts | 242° |
| 2026-04-26 17:11 | 1.87665 | 40.75928 | 15220 ft | 393 kts | 242° |
| 2026-04-26 17:11 | 1.86406 | 40.73524 | 14710 ft | 390 kts | 242° |
| 2026-04-26 17:11 | 1.85154 | 40.71142 | 14190 ft | 386 kts | 242° |
| 2026-04-26 17:11 | 1.83908 | 40.68771 | 13679 ft | 382 kts | 242° |
| 2026-04-26 17:12 | 1.81462 | 40.64105 | 12653 ft | 376 kts | 242° |
| 2026-04-26 17:12 | 1.80252 | 40.61800 | 12158 ft | 373 kts | 242° |
| 2026-04-26 17:13 | 1.77868 | 40.57259 | 11181 ft | 360 kts | 242° |
| 2026-04-26 17:13 | 1.76740 | 40.55107 | 10723 ft | 340 kts | 242° |
| 2026-04-26 17:13 | 1.74672 | 40.51169 | 9934 ft | 308 kts | 242° |
| 2026-04-26 17:14 | 1.73692 | 40.49302 | 9509 ft | 301 kts | 242° |
| 2026-04-26 17:14 | 1.71781 | 40.45661 | 8734 ft | 292 kts | 242° |
| 2026-04-26 17:14 | 1.70842 | 40.43872 | 8353 ft | 289 kts | 241° |
| 2026-04-26 17:15 | 1.68987 | 40.40338 | 7593 ft | 284 kts | 241° |
| 2026-04-26 17:15 | 1.68073 | 40.38597 | 7216 ft | 282 kts | 241° |
| 2026-04-26 17:15 | 1.67170 | 40.36878 | 6848 ft | 279 kts | 241° |
| 2026-04-26 17:16 | 1.66280 | 40.35182 | 6478 ft | 277 kts | 241° |
| 2026-04-26 17:16 | 1.65389 | 40.33485 | 6109 ft | 275 kts | 241° |
| 2026-04-26 17:16 | 1.64501 | 40.31793 | 5741 ft | 274 kts | 240° |
| 2026-04-26 17:16 | 1.63616 | 40.30108 | 5379 ft | 274 kts | 240° |
| 2026-04-26 17:17 | 1.62728 | 40.28429 | 5006 ft | 273 kts | 240° |
| 2026-04-26 17:17 | 1.61686 | 40.26872 | 4745 ft | 260 kts | 233° |
| 2026-04-26 17:17 | 1.60734 | 40.25451 | 4501 ft | 235 kts | 234° |
| 2026-04-26 17:17 | 1.59852 | 40.24118 | 4295 ft | 227 kts | 234° |
| 2026-04-26 17:18 | 1.58985 | 40.22833 | 4114 ft | 227 kts | 234° |
| 2026-04-26 17:18 | 1.58267 | 40.21514 | 3853 ft | 201 kts | 252° |
| 2026-04-26 17:18 | 1.58238 | 40.20203 | 3692 ft | 187 kts | 278° |
| 2026-04-26 17:18 | 1.58779 | 40.19012 | 3565 ft | 192 kts | 307° |
| 2026-04-26 17:19 | 1.60913 | 40.17426 | 3275 ft | 193 kts | 326° |
| 2026-04-26 17:19 | 1.62022 | 40.16682 | 3041 ft | 190 kts | 327° |
| 2026-04-26 17:19 | 1.63116 | 40.15950 | 2801 ft | 190 kts | 327° |
| 2026-04-26 17:20 | 1.64212 | 40.15220 | 2576 ft | 188 kts | 327° |
| 2026-04-26 17:20 | 1.64933 | 40.14740 | 2422 ft | 188 kts | 327° |
| 2026-04-26 17:20 | 1.66395 | 40.13766 | 2106 ft | 187 kts | 327° |
| 2026-04-26 17:20 | 1.67482 | 40.13042 | 1885 ft | 188 kts | 327° |
| 2026-04-26 17:21 | 1.68554 | 40.12326 | 1660 ft | 188 kts | 328° |
| 2026-04-26 17:21 | 1.69634 | 40.11607 | 1436 ft | 185 kts | 328° |
| 2026-04-26 17:21 | 1.70683 | 40.10908 | 1215 ft | 179 kts | 328° |
| 2026-04-26 17:21 | 1.71735 | 40.10209 | 1003 ft | 180 kts | 327° |
| 2026-04-26 17:22 | 1.72757 | 40.09526 | 847 ft | 164 kts | 327° |
| 2026-04-26 17:22 | 1.73589 | 40.08974 | 844 ft | 115 kts | 325° |
| 2026-04-26 17:22 | 1.73975 | 40.08716 | 851 ft | 38 kts | 325° |
| 2026-04-26 17:22 | 1.74191 | 40.08573 | 852 ft | 37 kts | 327° |
| 2026-04-26 17:23 | 1.74319 | 40.08396 | 851 ft | 31 kts | 242° |
| 2026-04-26 17:23 | 1.74229 | 40.08343 | 841 ft | 16 kts | 154° |
| 2026-04-26 17:23 | 1.74071 | 40.08446 | 849 ft | 40 kts | 146° |
| 2026-04-26 17:23 | 1.73815 | 40.08621 | 848 ft | 44 kts | 143° |
| 2026-04-26 17:24 | 1.73565 | 40.08744 | 846 ft | 35 kts | 203° |
| 2026-04-26 17:24 | 1.73411 | 40.08774 | 845 ft | 22 kts | 146° |
| 2026-04-26 17:24 | 1.73255 | 40.08822 | 844 ft | 24 kts | 174° |
| 2026-04-26 17:24 | 1.73153 | 40.08877 | 844 ft | 13 kts | 57° |
| 2026-04-26 17:25 | 1.73162 | 40.08893 | 841 ft | 0 kts | 58° |